Time;durP1;ratioP1;P1;durP2;ratioP2;P2;SDS_P1;SDS_P2;PMS_P1;PMS_P2;Temp;Humidity;BMP_temperature;BMP_pressure;BME280_temperature;BME280_humidity;BME280_pressure;Samples;Min_cycle;Max_cycle;Signal;HPM_P1;HPM_P2
2023/12/19 00:00:41;;;;;;;0.40;0.40;;;;;;;3.86;100.00;102447.78;5114998;28;20023;-48
2023/12/19 00:03:07;;;;;;;0.30;0.30;;;;;;;3.86;100.00;102460.53;5115773;28;20390;-46
2023/12/19 00:05:32;;;;;;;0.40;0.40;;;;;;;3.88;100.00;102463.22;5115688;28;20019;-44
2023/12/19 00:07:57;;;;;;;0.40;0.40;;;;;;;3.88;100.00;102461.53;5114571;28;20023;-46
2023/12/19 00:10:23;;;;;;;0.40;0.40;;;;;;;3.89;100.00;102448.03;5115101;28;20016;-49
2023/12/19 00:12:48;;;;;;;0.40;0.40;;;;;;;3.89;100.00;102440.38;5115245;28;20045;-49
2023/12/19 00:15:13;;;;;;;0.40;0.40;;;;;;;3.90;100.00;102441.25;5114206;28;20027;-43
2023/12/19 00:17:40;;;;;;;0.50;0.50;;;;;;;3.89;100.00;102430.16;5115380;28;20024;-44
2023/12/19 00:20:06;;;;;;;0.40;0.40;;;;;;;3.91;100.00;102432.84;5115243;28;20122;-45
2023/12/19 00:22:32;;;;;;;0.40;0.40;;;;;;;3.91;100.00;102421.00;5114201;28;20103;-44
2023/12/19 00:24:57;;;;;;;0.30;0.30;;;;;;;3.92;100.00;102420.22;5115136;28;20110;-43
2023/12/19 00:27:22;;;;;;;0.40;0.40;;;;;;;3.92;100.00;102425.31;5114660;28;20020;-47
2023/12/19 00:29:47;;;;;;;0.40;0.40;;;;;;;3.93;100.00;102416.91;5113590;28;20027;-46
2023/12/19 00:32:13;;;;;;;0.35;0.35;;;;;;;3.94;100.00;102405.94;5114807;28;20455;-44
2023/12/19 00:34:38;;;;;;;0.30;0.30;;;;;;;3.94;100.00;102398.28;5115106;28;20031;-43
2023/12/19 00:37:03;;;;;;;0.40;0.40;;;;;;;3.97;100.00;102391.66;5114238;28;20095;-43
2023/12/19 00:39:29;;;;;;;0.30;0.30;;;;;;;3.99;100.00;102392.66;5114377;28;20479;-43
2023/12/19 00:41:54;;;;;;;0.30;0.30;;;;;;;4.01;100.00;102393.69;5113802;28;20039;-45
2023/12/19 00:44:19;;;;;;;0.30;0.30;;;;;;;4.02;100.00;102390.38;5114564;28;20463;-43
2023/12/19 00:46:45;;;;;;;0.30;0.30;;;;;;;4.00;100.00;102387.66;5114366;28;20048;-44
2023/12/19 00:49:11;;;;;;;0.40;0.40;;;;;;;4.02;100.00;102382.72;5113641;28;20027;-46
2023/12/19 00:51:36;;;;;;;0.28;0.28;;;;;;;4.03;100.00;102371.72;5114646;28;20473;-45
2023/12/19 00:54:02;;;;;;;0.30;0.30;;;;;;;4.02;100.00;102363.19;5114477;28;20046;-45
2023/12/19 00:56:27;;;;;;;0.40;0.40;;;;;;;4.03;100.00;102353.84;5113421;28;20023;-44
2023/12/19 00:58:52;;;;;;;0.40;0.40;;;;;;;4.03;100.00;102358.97;5114596;28;20156;-44
2023/12/19 01:01:22;;;;;;;0.40;0.40;;;;;;;4.03;100.00;102364.97;5114101;28;20463;-44
2023/12/19 01:03:47;;;;;;;0.40;0.40;;;;;;;4.05;100.00;102354.88;5113701;28;20059;-45
2023/12/19 01:06:13;;;;;;;0.40;0.40;;;;;;;4.04;100.00;102351.47;5114186;28;20073;-45
2023/12/19 01:08:38;;;;;;;0.50;0.50;;;;;;;4.04;100.00;102341.25;5114387;28;20046;-45
2023/12/19 01:11:03;;;;;;;0.40;0.40;;;;;;;4.04;100.00;102342.91;5113431;28;20375;-44
2023/12/19 01:13:29;;;;;;;0.50;0.50;;;;;;;4.04;100.00;102337.78;5114086;28;20027;-43
2023/12/19 01:15:54;;;;;;;0.38;0.38;;;;;;;4.04;100.00;102331.03;5114219;28;20411;-43
2023/12/19 01:18:19;;;;;;;0.50;0.50;;;;;;;4.04;100.00;102323.41;5113037;28;20107;-43
2023/12/19 01:20:47;;;;;;;0.40;0.40;;;;;;;4.06;100.00;102334.59;5114222;28;20027;-45
2023/12/19 01:23:12;;;;;;;0.40;0.40;;;;;;;4.06;100.00;102332.03;5113637;28;20478;-45
2023/12/19 01:25:39;;;;;;;0.40;0.40;;;;;;;4.06;100.00;102336.25;5113207;28;20028;-44
2023/12/19 01:28:05;;;;;;;0.40;0.40;;;;;;;4.08;100.00;102334.72;5114042;28;20043;-45
2023/12/19 01:30:30;;;;;;;0.40;0.40;;;;;;;4.10;100.00;102328.09;5113733;28;20062;-44
2023/12/19 01:32:55;;;;;;;0.40;0.40;;;;;;;4.12;100.00;102326.56;5112976;28;20463;-43
2023/12/19 01:35:20;;;;;;;0.40;0.40;;;;;;;4.14;100.00;102324.13;5113388;28;20031;-48
2023/12/19 01:37:45;;;;;;;0.40;0.40;;;;;;;4.13;100.00;102323.22;5113640;28;20467;-45
2023/12/19 01:40:11;;;;;;;0.40;0.40;;;;;;;4.15;100.00;102324.25;5112919;28;20023;-44
2023/12/19 01:42:36;;;;;;;0.32;0.32;;;;;;;4.15;100.00;102331.00;5112539;28;20020;-47
2023/12/19 01:45:09;;;;;;;0.40;0.40;;;;;;;4.15;100.00;102326.78;5113586;28;20483;-47
2023/12/19 01:47:38;;;;;;;0.40;0.40;;;;;;;4.16;100.00;102326.03;5113170;28;20114;-46
2023/12/19 01:50:04;;;;;;;0.40;0.40;;;;;;;4.18;100.00;102324.47;5113510;28;20055;-46
2023/12/19 01:52:29;;;;;;;0.30;0.30;;;;;;;4.19;100.00;102323.69;5112623;28;20059;-47
2023/12/19 01:54:56;;;;;;;0.40;0.40;;;;;;;4.20;100.00;102319.50;5113445;28;20027;-43
2023/12/19 01:57:22;;;;;;;0.30;0.30;;;;;;;4.20;100.00;102315.28;5112903;28;20062;-44
2023/12/19 01:59:48;;;;;;;0.30;0.30;;;;;;;4.22;100.00;102310.28;5112812;28;20063;-44
2023/12/19 02:02:13;;;;;;;0.30;0.30;;;;;;;4.21;100.00;102309.41;5113002;28;20455;-44
2023/12/19 02:04:38;;;;;;;0.40;0.40;;;;;;;4.23;100.00;102306.97;5113382;28;20024;-43
2023/12/19 02:07:04;;;;;;;0.30;0.30;;;;;;;4.23;100.00;102320.63;5112351;28;20023;-45
2023/12/19 02:09:29;;;;;;;0.30;0.30;;;;;;;4.23;100.00;102317.19;5110915;28;20031;-44
2023/12/19 02:11:54;;;;;;;0.40;0.40;;;;;;;4.23;100.00;102307.84;5093113;28;20044;-45
2023/12/19 02:14:20;;;;;;;0.30;0.30;;;;;;;4.24;100.00;102301.13;5092104;28;20103;-46
2023/12/19 02:16:45;;;;;;;0.40;0.40;;;;;;;4.26;100.00;102297.00;5093126;28;20418;-45
2023/12/19 02:19:13;;;;;;;0.40;0.40;;;;;;;4.25;100.00;102295.25;5092502;28;20028;-43
2023/12/19 02:21:38;;;;;;;0.30;0.30;;;;;;;4.26;100.00;102299.56;5092086;28;20034;-44
2023/12/19 02:24:04;;;;;;;0.30;0.30;;;;;;;4.25;100.00;102287.59;5092984;28;20028;-47
2023/12/19 02:26:31;;;;;;;0.40;0.40;;;;;;;4.24;100.00;102285.81;5092639;28;20039;-49
2023/12/19 02:28:56;;;;;;;0.40;0.40;;;;;;;4.24;100.00;102284.13;5092127;28;20032;-48
2023/12/19 02:31:21;;;;;;;0.30;0.30;;;;;;;4.25;100.00;102288.47;5092424;28;20028;-48
2023/12/19 02:33:47;;;;;;;0.40;0.40;;;;;;;4.23;100.00;102282.34;5092580;28;20032;-46
2023/12/19 02:36:12;;;;;;;0.40;0.40;;;;;;;4.21;100.00;102286.44;5091617;28;20533;-49
2023/12/19 02:38:38;;;;;;;0.40;0.40;;;;;;;4.21;100.00;102291.56;5092275;28;20039;-44
2023/12/19 02:41:04;;;;;;;0.32;0.32;;;;;;;4.20;100.00;102279.56;5092827;28;20024;-45
2023/12/19 02:43:29;;;;;;;0.30;0.30;;;;;;;4.20;100.00;102266.78;5091716;28;20060;-48
2023/12/19 02:45:54;;;;;;;0.40;0.40;;;;;;;4.20;100.00;102265.91;5092432;28;20087;-47
2023/12/19 02:48:20;;;;;;;0.30;0.30;;;;;;;4.20;100.00;102268.47;5092136;28;20467;-47
2023/12/19 02:50:45;;;;;;;0.40;0.40;;;;;;;4.19;100.00;102277.78;5091437;28;20028;-48
2023/12/19 02:53:10;;;;;;;0.40;0.40;;;;;;;4.18;100.00;102260.66;5092888;28;20065;-48
2023/12/19 02:55:35;;;;;;;0.30;0.30;;;;;;;4.19;100.00;102246.28;5095756;28;20024;-49
2023/12/19 02:58:01;;;;;;;0.40;0.40;;;;;;;4.19;100.00;102236.06;5096482;28;20058;-47
2023/12/19 03:00:26;;;;;;;0.30;0.30;;;;;;;4.18;100.00;102232.59;5096258;28;20031;-48
2023/12/19 03:02:51;;;;;;;0.40;0.40;;;;;;;4.18;100.00;102235.16;5095688;28;20024;-48
2023/12/19 03:05:18;;;;;;;0.40;0.40;;;;;;;4.18;100.00;102235.16;5095909;28;20028;-49
2023/12/19 03:07:43;;;;;;;0.40;0.40;;;;;;;4.20;100.00;102223.41;5096229;28;20021;-47
2023/12/19 03:10:09;;;;;;;0.30;0.30;;;;;;;4.21;100.00;102224.28;5095262;28;20038;-48
2023/12/19 03:12:35;;;;;;;0.30;0.30;;;;;;;4.20;100.00;102217.44;5096185;28;20024;-48
2023/12/19 03:15:02;;;;;;;0.32;0.32;;;;;;;4.21;100.00;102217.53;5096018;28;20055;-48
2023/12/19 03:17:27;;;;;;;0.35;0.35;;;;;;;4.20;100.00;102215.75;5094938;28;20023;-46
2023/12/19 03:19:52;;;;;;;0.32;0.32;;;;;;;4.20;100.00;102207.22;5095934;28;20020;-46
2023/12/19 03:22:17;;;;;;;0.30;0.30;;;;;;;4.20;100.00;102210.66;5095445;28;20046;-44
2023/12/19 03:24:43;;;;;;;0.40;0.40;;;;;;;4.21;100.00;102199.69;5095380;28;20038;-46
2023/12/19 03:27:08;;;;;;;0.40;0.40;;;;;;;4.21;100.00;102188.56;5096027;28;20020;-48
2023/12/19 03:29:34;;;;;;;0.40;0.40;;;;;;;4.21;100.00;102191.13;5095425;28;20035;-45
2023/12/19 03:31:59;;;;;;;0.40;0.40;;;;;;;4.20;100.00;102174.06;5095203;28;20020;-47
2023/12/19 03:34:25;;;;;;;0.40;0.40;;;;;;;4.20;100.00;102171.50;5095404;28;20467;-49
2023/12/19 03:36:50;;;;;;;0.40;0.40;;;;;;;4.19;100.00;102160.38;5095715;28;20051;-44
2023/12/19 03:39:16;;;;;;;0.40;0.40;;;;;;;4.21;100.00;102158.84;5094597;28;20376;-46
2023/12/19 03:41:41;;;;;;;0.40;0.40;;;;;;;4.20;100.00;102157.06;5095724;28;20054;-47
2023/12/19 03:44:06;;;;;;;0.40;0.40;;;;;;;4.20;100.00;102157.06;5095556;28;20036;-47
2023/12/19 03:46:31;;;;;;;0.30;0.30;;;;;;;4.21;100.00;102147.75;5094395;28;20432;-48
2023/12/19 03:48:57;;;;;;;0.30;0.30;;;;;;;4.23;100.00;102138.56;5095285;28;20036;-48
2023/12/19 03:51:22;;;;;;;0.32;0.32;;;;;;;4.22;100.00;102146.97;5095053;28;20024;-45
2023/12/19 03:53:48;;;;;;;0.40;0.40;;;;;;;4.22;100.00;102147.88;5094881;28;20507;-44
2023/12/19 03:56:13;;;;;;;0.40;0.40;;;;;;;4.24;100.00;102153.09;5094973;28;20023;-46
2023/12/19 03:58:39;;;;;;;0.40;0.40;;;;;;;4.24;100.00;102148.88;5095427;28;20028;-47
2023/12/19 04:01:05;;;;;;;0.30;0.30;;;;;;;4.26;100.00;102146.44;5094486;28;20551;-45
2023/12/19 04:03:30;;;;;;;0.32;0.32;;;;;;;4.26;100.00;102137.13;5094837;28;20099;-49
2023/12/19 04:05:55;;;;;;;0.40;0.40;;;;;;;4.26;100.00;102129.47;5093279;28;20468;-48
2023/12/19 04:08:20;;;;;;;0.40;0.40;;;;;;;4.29;100.00;102133.91;5094902;28;20035;-44
2023/12/19 04:10:46;;;;;;;0.30;0.30;;;;;;;4.28;100.00;102133.00;5095125;28;20471;-47
2023/12/19 04:13:11;;;;;;;0.30;0.30;;;;;;;4.31;100.00;102129.78;5094254;28;20028;-45
2023/12/19 04:15:36;;;;;;;0.30;0.30;;;;;;;4.32;100.00;102125.59;5094998;28;20375;-47
2023/12/19 04:18:02;;;;;;;0.30;0.30;;;;;;;4.33;100.00;102122.28;5095008;28;20471;-47
2023/12/19 04:20:27;;;;;;;0.40;0.40;;;;;;;4.34;100.00;102119.84;5093871;28;20074;-45
2023/12/19 04:22:52;;;;;;;0.40;0.40;;;;;;;4.34;100.00;102109.63;5094715;28;20032;-48
2023/12/19 04:25:18;;;;;;;0.40;0.40;;;;;;;4.35;100.00;102103.75;5094715;28;20031;-47
2023/12/19 04:27:43;;;;;;;0.40;0.40;;;;;;;4.34;100.00;102099.41;5093901;28;20031;-46
2023/12/19 04:30:09;;;;;;;0.28;0.28;;;;;;;4.38;100.00;102085.22;5094674;28;20028;-48
2023/12/19 04:32:34;;;;;;;0.40;0.40;;;;;;;4.38;100.00;102078.44;5094516;28;20103;-49
2023/12/19 04:34:59;;;;;;;0.40;0.40;;;;;;;4.41;100.00;102070.13;5093655;28;20035;-46
2023/12/19 04:37:24;;;;;;;0.30;0.30;;;;;;;4.44;100.00;102055.03;5094099;28;20028;-49
2023/12/19 04:39:50;;;;;;;0.30;0.30;;;;;;;4.47;100.00;102060.38;5094301;28;20085;-47
2023/12/19 04:42:18;;;;;;;0.30;0.30;;;;;;;4.49;100.00;102066.47;5093478;28;20020;-47
2023/12/19 04:44:46;;;;;;;0.22;0.22;;;;;;;4.53;100.00;102057.38;5094044;28;20482;-48
2023/12/19 04:47:13;;;;;;;0.30;0.30;;;;;;;4.54;100.00;102054.94;5073435;28;20079;-46
2023/12/19 04:49:39;;;;;;;0.30;0.30;;;;;;;4.58;100.00;102048.41;5072858;28;20063;-47
2023/12/19 04:52:04;;;;;;;0.30;0.30;;;;;;;4.59;100.00;102056.16;5074077;28;20028;-48
2023/12/19 04:54:30;;;;;;;0.30;0.30;;;;;;;4.62;100.00;102040.19;5073596;28;20029;-46
2023/12/19 04:56:55;;;;;;;0.30;0.30;;;;;;;4.64;100.00;102047.97;5072798;28;20036;-48
2023/12/19 04:59:20;;;;;;;0.38;0.38;;;;;;;4.66;100.00;102041.28;5073190;28;20024;-48
2023/12/19 05:01:46;;;;;;;0.40;0.40;;;;;;;4.66;100.00;102032.00;5073687;28;20028;-49
2023/12/19 05:04:11;;;;;;;0.30;0.30;;;;;;;4.68;100.00;102039.75;5072415;28;20074;-46
2023/12/19 05:06:36;;;;;;;0.40;0.40;;;;;;;4.69;100.00;102036.44;5073645;28;20124;-48
2023/12/19 05:09:02;;;;;;;0.30;0.30;;;;;;;4.73;100.00;102041.84;5073541;28;20035;-47
2023/12/19 05:11:28;;;;;;;0.35;0.35;;;;;;;4.74;100.00;102040.22;5072576;28;20024;-48
2023/12/19 05:13:53;;;;;;;0.30;0.30;;;;;;;4.76;100.00;102033.53;5073487;28;20107;-47
2023/12/19 05:16:19;;;;;;;0.40;0.40;;;;;;;4.78;100.00;102031.97;5072241;28;20077;-47
2023/12/19 05:18:45;;;;;;;0.40;0.40;;;;;;;4.82;100.00;102033.97;5073503;28;20039;-49
2023/12/19 05:21:11;;;;;;;0.40;0.40;;;;;;;4.84;100.00;102032.44;5073314;28;20101;-47
2023/12/19 05:23:39;;;;;;;0.40;0.40;;;;;;;4.86;100.00;102040.19;5072710;28;20488;-49
2023/12/19 05:26:08;;;;;;;0.30;0.30;;;;;;;4.87;100.00;102035.19;5073360;28;20021;-48
2023/12/19 05:28:34;;;;;;;0.40;0.40;;;;;;;4.89;100.00;102028.53;5073076;28;20029;-46
2023/12/19 05:31:00;;;;;;;0.30;0.30;;;;;;;4.93;100.00;102017.75;5072637;28;20024;-48
2023/12/19 05:33:26;;;;;;;0.40;0.40;;;;;;;4.94;100.00;102027.19;5072789;28;20096;-45
2023/12/19 05:35:52;;;;;;;0.40;0.40;;;;;;;4.98;100.00;102022.31;5073173;28;20056;-44
2023/12/19 05:38:18;;;;;;;0.30;0.30;;;;;;;4.99;100.00;102011.31;5072006;28;20429;-47
2023/12/19 05:40:44;;;;;;;0.40;0.40;;;;;;;5.01;100.00;102019.94;5072950;28;20465;-49
2023/12/19 05:43:09;;;;;;;0.28;0.28;;;;;;;5.03;100.00;102036.28;5073071;28;20055;-45
2023/12/19 05:45:34;;;;;;;0.40;0.40;;;;;;;5.06;100.00;102023.72;5078679;28;20036;-49
2023/12/19 05:48:00;;;;;;;0.38;0.38;;;;;;;5.08;100.00;102025.59;5092963;28;20073;-47
2023/12/19 05:50:25;;;;;;;0.30;0.30;;;;;;;5.09;100.00;102008.63;5092742;28;20032;-46
2023/12/19 05:52:52;;;;;;;0.40;0.40;;;;;;;5.10;100.00;102002.75;5092478;28;20028;-44
2023/12/19 05:55:17;;;;;;;0.30;0.30;;;;;;;5.10;100.00;102000.19;5092843;28;20031;-48
2023/12/19 05:57:42;;;;;;;0.40;0.40;;;;;;;5.10;100.00;101984.84;5093125;28;20020;-48
2023/12/19 06:00:08;;;;;;;0.32;0.32;;;;;;;5.13;100.00;101982.50;5092361;28;20487;-47
2023/12/19 06:02:33;;;;;;;0.20;0.20;;;;;;;5.14;100.00;101981.72;5092538;28;20472;-47
2023/12/19 06:05:07;;;;;;;0.38;0.38;;;;;;;5.15;100.00;101983.50;5092887;28;20059;-49
2023/12/19 06:07:34;;;;;;;0.40;0.40;;;;;;;5.16;100.00;101985.25;5091902;28;20020;-46
2023/12/19 06:09:59;;;;;;;0.30;0.30;;;;;;;5.19;100.00;101987.13;5092627;28;20528;-48
2023/12/19 06:12:25;;;;;;;0.30;0.30;;;;;;;5.20;100.00;101984.72;5091867;28;20028;-47
2023/12/19 06:14:50;;;;;;;0.40;0.40;;;;;;;5.21;100.00;101978.78;5092888;28;20028;-48
2023/12/19 06:17:15;;;;;;;0.40;0.40;;;;;;;5.23;100.00;101986.59;5092446;28;20020;-47
2023/12/19 06:19:40;;;;;;;0.40;0.40;;;;;;;5.23;100.00;101987.47;5092223;28;20042;-49
2023/12/19 06:22:06;;;;;;;0.40;0.40;;;;;;;5.24;100.00;101994.38;5092851;28;20061;-45
2023/12/19 06:24:31;;;;;;;0.40;0.40;;;;;;;5.25;100.00;101977.34;5092432;28;20367;-44
2023/12/19 06:26:56;;;;;;;0.30;0.30;;;;;;;5.23;100.00;101972.13;5091715;28;20036;-48
2023/12/19 06:29:22;;;;;;;0.30;0.30;;;;;;;5.23;100.00;101977.25;5095114;28;20494;-48
2023/12/19 06:31:47;;;;;;;0.30;0.30;;;;;;;5.24;100.00;101973.00;5096825;28;20028;-49
2023/12/19 06:34:12;;;;;;;0.45;0.45;;;;;;;5.23;100.00;101977.25;5096058;28;20376;-47
2023/12/19 06:36:38;;;;;;;0.32;0.32;;;;;;;5.25;100.00;101980.81;5096755;28;20036;-47
2023/12/19 06:39:04;;;;;;;0.30;0.30;;;;;;;5.27;100.00;101968.13;5096858;28;20154;-46
2023/12/19 06:41:29;;;;;;;0.30;0.30;;;;;;;5.28;100.00;101978.44;5095684;28;20028;-46
2023/12/19 06:43:54;;;;;;;0.40;0.40;;;;;;;5.28;100.00;101964.78;5096670;28;20380;-47
2023/12/19 06:46:20;;;;;;;0.30;0.30;;;;;;;5.30;100.00;101959.78;5096128;28;20119;-48
2023/12/19 06:48:46;;;;;;;0.40;0.40;;;;;;;5.31;100.00;101971.75;5095952;28;20024;-47
2023/12/19 06:51:31;;;;;;;0.22;0.22;;;;;;;5.32;100.00;101965.88;5096525;28;20026;-45
2023/12/19 06:53:57;;;;;;;0.30;0.30;;;;;;;5.33;100.00;101965.09;5096514;28;20138;-47
2023/12/19 06:56:26;;;;;;;0.30;0.30;;;;;;;5.35;100.00;101966.09;5095420;28;20024;-46
2023/12/19 06:58:52;;;;;;;0.30;0.30;;;;;;;5.35;100.00;101966.97;5096346;28;20036;-45
2023/12/19 07:01:18;;;;;;;0.30;0.30;;;;;;;5.36;100.00;101957.63;5096040;28;20495;-50
2023/12/19 07:03:44;;;;;;;0.40;0.40;;;;;;;5.38;100.00;101966.31;5095595;28;20024;-47
2023/12/19 07:06:13;;;;;;;0.30;0.30;;;;;;;5.40;100.00;101944.28;5096356;28;20024;-44
2023/12/19 07:08:39;;;;;;;0.30;0.30;;;;;;;5.43;100.00;101954.72;5095702;28;20379;-45
2023/12/19 07:11:05;;;;;;;0.30;0.30;;;;;;;5.44;100.00;101953.94;5095995;28;20472;-47
2023/12/19 07:13:31;;;;;;;0.30;0.30;;;;;;;5.42;100.00;101947.81;5095926;28;20023;-50
2023/12/19 07:15:56;;;;;;;0.38;0.38;;;;;;;5.43;100.00;101957.28;5095322;28;20105;-48
2023/12/19 07:18:21;;;;;;;0.30;0.30;;;;;;;5.42;100.00;101948.72;5095794;28;20073;-47
2023/12/19 07:20:46;;;;;;;0.35;0.35;;;;;;;5.42;100.00;101948.72;5096225;28;20055;-49
2023/12/19 07:23:12;;;;;;;0.35;0.35;;;;;;;5.42;100.00;101943.63;5095087;28;20031;-47
2023/12/19 07:25:38;;;;;;;0.30;0.30;;;;;;;5.42;100.00;101942.72;5095944;28;20387;-47
2023/12/19 07:28:03;;;;;;;0.40;0.40;;;;;;;5.42;100.00;101943.63;5095929;28;20468;-49
2023/12/19 07:30:29;;;;;;;0.40;0.40;;;;;;;5.44;100.00;101941.16;5094651;28;20039;-48
2023/12/19 07:32:54;;;;;;;0.30;0.30;;;;;;;5.47;100.00;101941.34;5095842;28;20027;-48
2023/12/19 07:35:20;;;;;;;0.38;0.38;;;;;;;5.48;100.00;101948.25;5095606;28;20511;-45
2023/12/19 07:37:46;;;;;;;0.30;0.30;;;;;;;5.50;100.00;101945.78;5095149;28;20028;-48
2023/12/19 07:40:12;;;;;;;0.30;0.30;;;;;;;5.52;100.00;101954.47;5095253;28;20357;-46
2023/12/19 07:42:40;;;;;;;0.30;0.30;;;;;;;5.52;100.00;101965.56;5095397;28;20016;-45
2023/12/19 07:45:06;;;;;;;0.30;0.30;;;;;;;5.55;100.00;101958.13;5094860;28;20580;-47
2023/12/19 07:47:32;;;;;;;0.30;0.30;;;;;;;5.57;100.00;101953.97;5094725;28;20039;-48
2023/12/19 07:49:57;;;;;;;0.35;0.35;;;;;;;5.58;100.00;101958.31;5095264;28;20388;-49
2023/12/19 07:52:22;;;;;;;0.30;0.30;;;;;;;5.61;100.00;101939.75;5094381;28;20025;-48
2023/12/19 07:54:48;;;;;;;0.40;0.40;;;;;;;5.61;100.00;101939.75;5095481;28;20036;-49
2023/12/19 07:57:13;;;;;;;0.35;0.35;;;;;;;5.63;100.00;101933.06;5094748;28;20031;-44
2023/12/19 07:59:39;;;;;;;0.20;0.20;;;;;;;5.63;100.00;101938.19;5094506;28;20376;-45
2023/12/19 08:02:05;;;;;;;0.30;0.30;;;;;;;5.64;100.00;101936.50;5095417;28;20024;-49
2023/12/19 08:04:30;;;;;;;0.40;0.40;;;;;;;5.67;100.00;101927.38;5094968;28;20035;-45
2023/12/19 08:06:55;;;;;;;0.40;0.40;;;;;;;5.67;100.00;101918.78;5094611;28;20016;-43
2023/12/19 08:09:21;;;;;;;0.30;0.30;;;;;;;5.68;100.00;101930.81;5094790;28;20036;-47
2023/12/19 08:11:47;;;;;;;0.30;0.30;;;;;;;5.69;100.00;101912.13;5095075;28;20027;-44
2023/12/19 08:14:12;;;;;;;0.30;0.30;;;;;;;5.68;100.00;101911.25;5094048;28;20107;-44
2023/12/19 08:16:38;;;;;;;0.40;0.40;;;;;;;5.67;100.00;101913.66;5094992;28;20075;-45
2023/12/19 08:19:03;;;;;;;0.30;0.30;;;;;;;5.65;100.00;101916.13;5094384;28;20024;-45
2023/12/19 08:21:29;;;;;;;0.30;0.30;;;;;;;5.64;100.00;101923.72;5094637;28;20032;-47
2023/12/19 08:23:55;;;;;;;0.38;0.38;;;;;;;5.61;100.00;101930.38;5094754;28;20487;-50
2023/12/19 08:26:20;;;;;;;0.32;0.32;;;;;;;5.60;100.00;101923.53;5093623;28;20024;-49
2023/12/19 08:28:45;;;;;;;0.30;0.30;;;;;;;5.58;100.00;101899.50;5094797;28;20028;-49
2023/12/19 08:31:10;;;;;;;0.30;0.30;;;;;;;5.57;100.00;101907.94;5094468;28;20028;-45
2023/12/19 08:33:36;;;;;;;0.30;0.30;;;;;;;5.57;100.00;101914.75;5093941;28;20020;-45
2023/12/19 08:36:01;;;;;;;0.30;0.30;;;;;;;5.55;100.00;101914.66;5094525;28;20411;-47
2023/12/19 08:38:26;;;;;;;0.40;0.40;;;;;;;5.52;100.00;101916.09;5094226;28;20024;-48
2023/12/19 08:40:52;;;;;;;0.30;0.30;;;;;;;5.51;100.00;101922.88;5093676;28;20379;-44
2023/12/19 08:43:19;;;;;;;0.30;0.30;;;;;;;5.50;100.00;101912.56;5094051;28;20103;-49
2023/12/19 08:45:45;;;;;;;;;;;;;;;5.55;100.00;101917.22;5094388;28;20476;-46
2023/12/19 08:48:12;;;;;;;0.30;0.30;;;;;;;5.48;100.00;101907.34;5101800;28;19918;-44
2023/12/19 08:50:37;;;;;;;0.30;0.30;;;;;;;5.45;100.00;101909.69;5113229;28;20040;-45
2023/12/19 08:53:03;;;;;;;0.40;0.40;;;;;;;5.44;100.00;101900.25;5114619;28;20028;-45
2023/12/19 08:55:30;;;;;;;0.38;0.38;;;;;;;5.43;100.00;101898.47;5112816;28;20031;-47
2023/12/19 08:57:55;;;;;;;0.30;0.30;;;;;;;5.43;100.00;101898.47;5114581;28;20020;-47
2023/12/19 09:00:21;;;;;;;0.30;0.30;;;;;;;5.43;100.00;101893.34;5113707;28;20030;-46
2023/12/19 09:02:47;;;;;;;0.30;0.30;;;;;;;5.41;100.00;101884.69;5113352;28;20024;-43
2023/12/19 09:05:14;;;;;;;0.40;0.40;;;;;;;5.40;100.00;101883.81;5113817;28;20016;-46
2023/12/19 09:07:41;;;;;;;0.25;0.25;;;;;;;5.41;100.00;101884.69;5113508;28;20023;-44
2023/12/19 09:10:07;;;;;;;0.40;0.40;;;;;;;5.39;100.00;101892.25;5113193;28;20431;-44
2023/12/19 09:12:33;;;;;;;0.40;0.40;;;;;;;5.39;100.00;101891.38;5113093;28;20028;-47
2023/12/19 09:14:58;;;;;;;0.30;0.30;;;;;;;5.40;100.00;101885.50;5113524;28;20193;-49
2023/12/19 09:17:24;;;;;;;0.30;0.30;;;;;;;5.40;100.00;101882.94;5112612;28;20115;-45
2023/12/19 09:19:49;;;;;;;0.35;0.35;;;;;;;5.40;100.00;101877.81;5113167;28;20089;-44
2023/12/19 09:22:14;;;;;;;0.30;0.30;;;;;;;5.40;100.00;101872.72;5112974;28;20072;-46
2023/12/19 09:24:39;;;;;;;0.30;0.30;;;;;;;5.40;100.00;101883.81;5113300;28;20455;-48
2023/12/19 09:27:05;;;;;;;0.30;0.30;;;;;;;5.40;100.00;101868.47;5114114;28;20064;-44
2023/12/19 09:29:30;;;;;;;0.35;0.35;;;;;;;5.40;100.00;101858.25;5113048;28;20370;-47
2023/12/19 09:31:56;;;;;;;0.30;0.30;;;;;;;5.40;100.00;101873.59;5113957;28;20023;-46
2023/12/19 09:34:21;;;;;;;0.30;0.30;;;;;;;5.41;100.00;101864.22;5113581;28;20024;-44
2023/12/19 09:36:47;;;;;;;0.40;0.40;;;;;;;5.40;100.00;101857.38;5112889;28;20038;-44
2023/12/19 09:39:15;;;;;;;0.40;0.40;;;;;;;5.41;100.00;101864.22;5113407;28;20031;-48
2023/12/19 09:41:42;;;;;;;0.30;0.30;;;;;;;5.40;100.00;101867.59;5113630;28;20027;-44
2023/12/19 09:44:07;;;;;;;0.40;0.40;;;;;;;5.41;100.00;101866.78;5113051;28;20073;-49
2023/12/19 09:46:33;;;;;;;0.38;0.38;;;;;;;5.42;100.00;101855.78;5113139;28;20040;-47
2023/12/19 09:49:00;;;;;;;0.30;0.30;;;;;;;5.42;100.00;101854.13;5113613;28;20561;-44
2023/12/19 09:51:32;;;;;;;0.40;0.40;;;;;;;5.43;100.00;101852.44;5112522;28;20027;-46
2023/12/19 09:54:00;;;;;;;0.40;0.40;;;;;;;5.42;100.00;101843.91;5113504;28;20023;-45
2023/12/19 09:56:29;;;;;;;0.30;0.30;;;;;;;5.44;100.00;101847.44;5113347;28;20024;-47
2023/12/19 09:58:56;;;;;;;0.40;0.40;;;;;;;5.46;100.00;101837.31;5112565;28;20387;-49
2023/12/19 10:01:21;;;;;;;0.40;0.40;;;;;;;5.48;100.00;101835.75;5111639;28;20016;-46
2023/12/19 10:03:49;;;;;;;0.40;0.40;;;;;;;5.51;100.00;101819.72;5110532;28;20073;-46
2023/12/19 10:06:17;;;;;;;0.40;0.40;;;;;;;5.52;100.00;101827.47;5111743;28;20028;-45
2023/12/19 10:08:43;;;;;;;0.30;0.30;;;;;;;5.52;100.00;101827.47;5113034;28;20016;-45
2023/12/19 10:11:14;;;;;;;0.30;0.30;;;;;;;5.53;100.00;101824.16;5113019;28;20023;-46
2023/12/19 10:13:40;;;;;;;0.30;0.30;;;;;;;5.56;100.00;101803.00;5111895;28;20034;-45
2023/12/19 10:16:08;;;;;;;0.38;0.38;;;;;;;5.56;100.00;101826.91;5112658;28;20028;-46
2023/12/19 10:18:34;;;;;;;0.30;0.30;;;;;;;5.57;100.00;101815.88;5112006;28;20087;-45
2023/12/19 10:21:08;;;;;;;0.40;0.40;;;;;;;5.57;100.00;101818.44;5112898;28;20091;-47
2023/12/19 10:23:34;;;;;;;0.35;0.35;;;;;;;5.59;100.00;101810.88;5112740;28;20055;-45
2023/12/19 10:25:59;;;;;;;0.40;0.40;;;;;;;5.60;100.00;101805.88;5112516;28;20020;-46
2023/12/19 10:28:24;;;;;;;0.35;0.35;;;;;;;5.60;100.00;101821.22;5112282;28;20020;-45
2023/12/19 10:30:50;;;;;;;0.30;0.30;;;;;;;5.63;100.00;101799.16;5113217;28;20052;-46
2023/12/19 10:33:15;;;;;;;0.38;0.38;;;;;;;5.64;100.00;101798.41;5111580;28;20027;-47
2023/12/19 10:35:44;;;;;;;0.32;0.32;;;;;;;5.66;100.00;101789.16;5110860;28;20102;-49
2023/12/19 10:38:09;;;;;;;0.40;0.40;;;;;;;5.67;100.00;101779.03;5112653;28;20031;-46
2023/12/19 10:40:35;;;;;;;0.38;0.38;;;;;;;5.68;100.00;101772.22;5110828;28;20020;-46
2023/12/19 10:43:02;;;;;;;0.30;0.30;;;;;;;5.68;100.00;101770.56;5112288;28;20026;-46
2023/12/19 10:45:27;;;;;;;0.30;0.30;;;;;;;5.69;100.00;101763.78;5111977;28;20044;-47
2023/12/19 10:47:53;;;;;;;0.30;0.30;;;;;;;5.70;100.00;101765.56;5111803;28;20035;-45
2023/12/19 10:50:19;;;;;;;0.40;0.40;;;;;;;5.70;100.00;101766.41;5112063;28;20034;-49
2023/12/19 10:52:50;;;;;;;0.40;0.40;;;;;;;5.70;100.00;101766.41;5112551;28;20411;-50
2023/12/19 10:55:21;;;;;;;0.30;0.30;;;;;;;5.72;100.00;101758.84;5111225;28;20051;-47
2023/12/19 10:57:48;;;;;;;0.30;0.30;;;;;;;5.73;100.00;101741.06;5111232;28;20031;-49
2023/12/19 11:00:21;;;;;;;0.30;0.30;;;;;;;5.74;100.00;101721.47;5112012;28;20122;-49
2023/12/19 11:03:14;;;;;;;0.30;0.30;;;;;;;5.76;100.00;101718.22;5111871;28;20174;-44
2023/12/19 11:05:47;;;;;;;0.30;0.30;;;;;;;5.77;100.00;101713.97;5112598;28;20027;-51
2023/12/19 11:08:17;;;;;;;0.40;0.40;;;;;;;5.80;100.00;101700.50;5110878;28;20387;-44
2023/12/19 11:11:19;;;;;;;0.30;0.30;;;;;;;5.83;100.00;101696.47;5112476;28;20023;-44
2023/12/19 11:13:47;;;;;;;0.30;0.30;;;;;;;5.82;100.00;101699.81;5112544;28;20031;-48
2023/12/19 11:16:21;;;;;;;0.35;0.35;;;;;;;5.84;100.00;101703.34;5115390;28;20103;-45
2023/12/19 11:18:59;;;;;;;0.40;0.40;;;;;;;5.84;100.00;101690.56;5116422;28;20027;-49